SAS710 ESSA-EFHK
Flight info
| Callsign | SAS710 |
|---|---|
| Flight time | 0h 44m |
| Altitude | 33000 |
| Route | TOVRI N851 RIKUM DCT RIRIP Y364 LAKUT |
| Aircraft | A320/M-SDE3FGHIRWY/LB1 |
Departure
| Time | 2026-04-20 17:34 |
|---|---|
| Airport | Stockholm-Arlanda Airport (ESSA) |
Arrival
| Time | 2026-04-20 18:18 |
|---|---|
| Airport | Helsinki Vantaa Airport (EFHK) |
| Time | Latitude | Longitude | Altitude | Speed | Heading |
|---|---|---|---|---|---|
| 2026-04-20 16:58 | 59.65200 | 17.93023 | 112 ft | 0 kts | 70° |
| 2026-04-20 17:24 | 59.65194 | 17.92980 | 111 ft | 4 kts | 92° |
| 2026-04-20 17:25 | 59.65199 | 17.92929 | 110 ft | 4 kts | 110° |
| 2026-04-20 17:25 | 59.65209 | 17.92879 | 110 ft | 4 kts | 109° |
| 2026-04-20 17:25 | 59.65218 | 17.92828 | 110 ft | 4 kts | 109° |
| 2026-04-20 17:25 | 59.65226 | 17.92778 | 111 ft | 4 kts | 109° |
| 2026-04-20 17:26 | 59.65230 | 17.92754 | 109 ft | 0 kts | 109° |
| 2026-04-20 17:30 | 59.65231 | 17.92777 | 110 ft | 3 kts | 80° |
| 2026-04-20 17:30 | 59.65254 | 17.92798 | 111 ft | 5 kts | 3° |
| 2026-04-20 17:30 | 59.65300 | 17.92768 | 112 ft | 9 kts | 336° |
| 2026-04-20 17:30 | 59.65366 | 17.92700 | 112 ft | 12 kts | 331° |
| 2026-04-20 17:31 | 59.65454 | 17.92605 | 109 ft | 16 kts | 331° |
| 2026-04-20 17:31 | 59.65535 | 17.92663 | 107 ft | 15 kts | 68° |
| 2026-04-20 17:31 | 59.65562 | 17.92868 | 108 ft | 16 kts | 76° |
| 2026-04-20 17:31 | 59.65590 | 17.93090 | 107 ft | 17 kts | 76° |
| 2026-04-20 17:32 | 59.65628 | 17.93300 | 108 ft | 14 kts | 51° |
| 2026-04-20 17:32 | 59.65705 | 17.93457 | 109 ft | 17 kts | 45° |
| 2026-04-20 17:32 | 59.65781 | 17.93612 | 115 ft | 12 kts | 46° |
| 2026-04-20 17:32 | 59.65839 | 17.93656 | 117 ft | 6 kts | 19° |
| 2026-04-20 17:33 | 59.65856 | 17.93736 | 117 ft | 9 kts | 77° |
| 2026-04-20 17:33 | 59.65899 | 17.94067 | 120 ft | 56 kts | 75° |
| 2026-04-20 17:33 | 59.66051 | 17.95265 | 118 ft | 120 kts | 76° |
| 2026-04-20 17:33 | 59.66294 | 17.97163 | 270 ft | 154 kts | 73° |
| 2026-04-20 17:34 | 59.66551 | 17.99209 | 981 ft | 152 kts | 73° |
| 2026-04-20 17:34 | 59.66804 | 18.01223 | 1746 ft | 150 kts | 73° |
| 2026-04-20 17:34 | 59.67068 | 18.03258 | 2279 ft | 160 kts | 73° |
| 2026-04-20 17:34 | 59.67344 | 18.05527 | 2693 ft | 179 kts | 75° |
| 2026-04-20 17:35 | 59.67624 | 18.08074 | 3090 ft | 202 kts | 76° |
| 2026-04-20 17:35 | 59.67923 | 18.10951 | 3612 ft | 225 kts | 76° |
| 2026-04-20 17:35 | 59.68261 | 18.14115 | 4200 ft | 244 kts | 75° |
| 2026-04-20 17:35 | 59.68630 | 18.17448 | 5142 ft | 250 kts | 75° |
| 2026-04-20 17:36 | 59.69003 | 18.20836 | 6142 ft | 254 kts | 76° |
| 2026-04-20 17:36 | 59.69380 | 18.24282 | 7125 ft | 257 kts | 76° |
| 2026-04-20 17:36 | 59.69833 | 18.27712 | 8059 ft | 259 kts | 72° |
| 2026-04-20 17:36 | 59.70355 | 18.31147 | 8993 ft | 262 kts | 71° |
| 2026-04-20 17:37 | 59.70901 | 18.34603 | 9931 ft | 265 kts | 71° |
| 2026-04-20 17:37 | 59.71461 | 18.38114 | 10710 ft | 273 kts | 71° |
| 2026-04-20 17:37 | 59.72055 | 18.41854 | 11003 ft | 295 kts | 71° |
| 2026-04-20 17:37 | 59.72679 | 18.45815 | 11572 ft | 305 kts | 71° |
| 2026-04-20 17:38 | 59.73302 | 18.49812 | 12320 ft | 310 kts | 71° |
| 2026-04-20 17:38 | 59.73945 | 18.53969 | 13080 ft | 314 kts | 71° |
| 2026-04-20 17:38 | 59.74576 | 18.58081 | 13836 ft | 317 kts | 72° |
| 2026-04-20 17:38 | 59.75223 | 18.62297 | 14553 ft | 321 kts | 72° |
| 2026-04-20 17:39 | 59.75876 | 18.66559 | 15240 ft | 324 kts | 72° |
| 2026-04-20 17:39 | 59.76532 | 18.70850 | 15960 ft | 327 kts | 72° |
| 2026-04-20 17:39 | 59.77194 | 18.75182 | 16669 ft | 329 kts | 72° |
| 2026-04-20 17:39 | 59.77856 | 18.79546 | 17348 ft | 332 kts | 72° |
| 2026-04-20 17:40 | 59.78522 | 18.83942 | 18024 ft | 335 kts | 72° |
| 2026-04-20 17:40 | 59.79194 | 18.88395 | 18704 ft | 338 kts | 72° |
| 2026-04-20 17:40 | 59.79873 | 18.92889 | 19310 ft | 341 kts | 72° |
| 2026-04-20 17:40 | 59.80555 | 18.97414 | 19944 ft | 343 kts | 73° |
| 2026-04-20 17:41 | 59.81239 | 19.01969 | 20588 ft | 346 kts | 73° |
| 2026-04-20 17:41 | 59.81928 | 19.06577 | 21227 ft | 348 kts | 73° |
| 2026-04-20 17:41 | 59.82617 | 19.11202 | 21845 ft | 351 kts | 73° |
| 2026-04-20 17:41 | 59.83310 | 19.15867 | 22464 ft | 353 kts | 73° |
| 2026-04-20 17:42 | 59.84010 | 19.20564 | 23061 ft | 356 kts | 73° |
| 2026-04-20 17:42 | 59.84714 | 19.25301 | 23670 ft | 358 kts | 73° |
| 2026-04-20 17:42 | 59.85419 | 19.30063 | 24217 ft | 361 kts | 74° |
| 2026-04-20 17:42 | 59.86128 | 19.34872 | 24704 ft | 363 kts | 74° |
| 2026-04-20 17:43 | 59.86838 | 19.39705 | 25201 ft | 365 kts | 74° |
| 2026-04-20 17:43 | 59.87546 | 19.44559 | 25680 ft | 366 kts | 74° |
| 2026-04-20 17:43 | 59.88257 | 19.49449 | 26164 ft | 368 kts | 74° |
| 2026-04-20 17:43 | 59.88970 | 19.54359 | 26645 ft | 370 kts | 75° |
| 2026-04-20 17:44 | 59.89682 | 19.59278 | 27143 ft | 370 kts | 75° |
| 2026-04-20 17:44 | 59.90395 | 19.64210 | 27599 ft | 372 kts | 75° |
| 2026-04-20 17:44 | 59.91111 | 19.69178 | 28048 ft | 374 kts | 75° |
| 2026-04-20 17:44 | 59.91829 | 19.74167 | 28479 ft | 376 kts | 75° |
| 2026-04-20 17:45 | 59.92549 | 19.79188 | 28909 ft | 378 kts | 75° |
| 2026-04-20 17:45 | 59.93271 | 19.84250 | 29323 ft | 380 kts | 75° |
| 2026-04-20 17:45 | 59.93997 | 19.89331 | 29740 ft | 382 kts | 75° |
| 2026-04-20 17:45 | 59.94724 | 19.94453 | 30152 ft | 385 kts | 75° |
| 2026-04-20 17:46 | 59.95451 | 19.99611 | 30550 ft | 387 kts | 75° |
| 2026-04-20 17:46 | 59.96181 | 20.04788 | 30890 ft | 389 kts | 75° |
| 2026-04-20 17:46 | 59.96916 | 20.10004 | 31222 ft | 392 kts | 75° |
| 2026-04-20 17:46 | 59.97656 | 20.15252 | 31546 ft | 394 kts | 75° |
| 2026-04-20 17:47 | 59.98400 | 20.20541 | 31866 ft | 396 kts | 75° |
| 2026-04-20 17:47 | 59.99140 | 20.25851 | 32265 ft | 397 kts | 75° |
| 2026-04-20 17:47 | 59.99874 | 20.31154 | 32746 ft | 395 kts | 75° |
| 2026-04-20 17:47 | 60.00602 | 20.36429 | 33213 ft | 394 kts | 76° |
| 2026-04-20 17:48 | 60.01328 | 20.41717 | 33372 ft | 392 kts | 76° |
| 2026-04-20 17:48 | 60.02039 | 20.46889 | 33393 ft | 381 kts | 76° |
| 2026-04-20 17:48 | 60.02735 | 20.51960 | 33391 ft | 376 kts | 76° |
| 2026-04-20 17:49 | 60.04108 | 20.62017 | 33383 ft | 374 kts | 76° |
| 2026-04-20 17:49 | 60.05463 | 20.72079 | 33382 ft | 374 kts | 76° |
| 2026-04-20 17:50 | 60.06813 | 20.82133 | 33383 ft | 374 kts | 76° |
| 2026-04-20 17:50 | 60.08157 | 20.92191 | 33378 ft | 374 kts | 76° |
| 2026-04-20 17:51 | 60.09498 | 21.02269 | 33380 ft | 374 kts | 76° |
| 2026-04-20 17:51 | 60.10830 | 21.12345 | 33396 ft | 374 kts | 76° |
| 2026-04-20 17:52 | 60.12151 | 21.22388 | 33087 ft | 367 kts | 76° |
| 2026-04-20 17:52 | 60.12792 | 21.27305 | 32800 ft | 364 kts | 76° |
| 2026-04-20 17:52 | 60.13424 | 21.32204 | 32529 ft | 361 kts | 76° |
| 2026-04-20 17:52 | 60.14052 | 21.37062 | 32279 ft | 359 kts | 76° |
| 2026-04-20 17:53 | 60.14677 | 21.41903 | 32007 ft | 357 kts | 76° |
| 2026-04-20 17:53 | 60.15296 | 21.46714 | 31743 ft | 355 kts | 76° |
| 2026-04-20 17:53 | 60.15908 | 21.51498 | 31486 ft | 353 kts | 76° |
| 2026-04-20 17:53 | 60.16451 | 21.56291 | 30952 ft | 354 kts | 83° |
| 2026-04-20 17:54 | 60.16625 | 21.61296 | 29915 ft | 361 kts | 86° |
| 2026-04-20 17:54 | 60.16751 | 21.66239 | 28837 ft | 358 kts | 86° |
| 2026-04-20 17:54 | 60.16865 | 21.71205 | 27976 ft | 351 kts | 86° |
| 2026-04-20 17:54 | 60.16970 | 21.75978 | 27616 ft | 334 kts | 86° |
| 2026-04-20 17:55 | 60.17070 | 21.80532 | 27280 ft | 318 kts | 86° |
| 2026-04-20 17:55 | 60.17163 | 21.84871 | 26982 ft | 303 kts | 86° |
| 2026-04-20 17:55 | 60.17255 | 21.89027 | 26649 ft | 296 kts | 85° |
| 2026-04-20 17:55 | 60.17348 | 21.93150 | 26325 ft | 295 kts | 85° |
| 2026-04-20 17:56 | 60.17440 | 21.97248 | 26000 ft | 294 kts | 85° |
| 2026-04-20 17:56 | 60.17530 | 22.01336 | 25680 ft | 292 kts | 85° |
| 2026-04-20 17:56 | 60.17617 | 22.05411 | 25358 ft | 291 kts | 85° |
| 2026-04-20 17:56 | 60.17702 | 22.09464 | 25025 ft | 290 kts | 85° |
| 2026-04-20 17:57 | 60.17785 | 22.13501 | 24694 ft | 289 kts | 85° |
| 2026-04-20 17:57 | 60.17867 | 22.17527 | 24352 ft | 288 kts | 85° |
| 2026-04-20 17:57 | 60.17948 | 22.21536 | 24021 ft | 287 kts | 85° |
| 2026-04-20 17:57 | 60.18027 | 22.25529 | 23648 ft | 285 kts | 85° |
| 2026-04-20 17:58 | 60.18103 | 22.29506 | 23303 ft | 285 kts | 85° |
| 2026-04-20 17:58 | 60.18178 | 22.33468 | 22962 ft | 284 kts | 85° |
| 2026-04-20 17:58 | 60.18253 | 22.37433 | 22621 ft | 283 kts | 85° |
| 2026-04-20 17:58 | 60.18328 | 22.41381 | 22282 ft | 283 kts | 85° |
| 2026-04-20 17:59 | 60.18402 | 22.45317 | 21931 ft | 282 kts | 85° |
| 2026-04-20 17:59 | 60.18473 | 22.49245 | 21592 ft | 281 kts | 85° |
| 2026-04-20 17:59 | 60.18541 | 22.53161 | 21254 ft | 281 kts | 85° |
| 2026-04-20 17:59 | 60.18610 | 22.57079 | 20912 ft | 280 kts | 85° |
| 2026-04-20 18:00 | 60.18678 | 22.60989 | 20578 ft | 280 kts | 85° |
| 2026-04-20 18:00 | 60.18746 | 22.64890 | 20240 ft | 279 kts | 85° |
| 2026-04-20 18:00 | 60.18814 | 22.68783 | 19894 ft | 279 kts | 85° |
| 2026-04-20 18:00 | 60.18881 | 22.72670 | 19552 ft | 278 kts | 85° |
| 2026-04-20 18:01 | 60.18923 | 22.75288 | 19317 ft | 278 kts | 85° |
| 2026-04-20 18:01 | 60.18982 | 22.79123 | 18977 ft | 278 kts | 85° |
| 2026-04-20 18:01 | 60.19040 | 22.82996 | 18644 ft | 277 kts | 85° |
| 2026-04-20 18:01 | 60.19099 | 22.86922 | 18265 ft | 277 kts | 85° |
| 2026-04-20 18:02 | 60.19156 | 22.90784 | 17918 ft | 276 kts | 85° |
| 2026-04-20 18:02 | 60.19211 | 22.94633 | 17579 ft | 275 kts | 85° |
| 2026-04-20 18:02 | 60.19268 | 22.98524 | 17245 ft | 292 kts | 85° |
| 2026-04-20 18:02 | 60.19333 | 23.02774 | 16864 ft | 319 kts | 86° |
| 2026-04-20 18:03 | 60.19397 | 23.07281 | 16468 ft | 324 kts | 86° |
| 2026-04-20 18:03 | 60.19457 | 23.11876 | 16065 ft | 324 kts | 86° |
| 2026-04-20 18:03 | 60.19514 | 23.16335 | 15661 ft | 323 kts | 86° |
| 2026-04-20 18:03 | 60.19570 | 23.20896 | 15272 ft | 321 kts | 86° |
| 2026-04-20 18:04 | 60.19621 | 23.25368 | 14876 ft | 319 kts | 86° |
| 2026-04-20 18:04 | 60.19671 | 23.29823 | 14487 ft | 318 kts | 86° |
| 2026-04-20 18:04 | 60.19720 | 23.34245 | 14102 ft | 316 kts | 86° |
| 2026-04-20 18:04 | 60.19768 | 23.38641 | 13675 ft | 313 kts | 86° |
| 2026-04-20 18:05 | 60.19863 | 23.47352 | 12909 ft | 310 kts | 86° |
| 2026-04-20 18:05 | 60.19911 | 23.51683 | 12525 ft | 309 kts | 86° |
| 2026-04-20 18:05 | 60.19957 | 23.55983 | 12143 ft | 307 kts | 86° |
| 2026-04-20 18:06 | 60.19999 | 23.60269 | 11763 ft | 306 kts | 86° |
| 2026-04-20 18:06 | 60.20039 | 23.64539 | 11376 ft | 305 kts | 86° |
| 2026-04-20 18:06 | 60.20075 | 23.68731 | 11002 ft | 303 kts | 86° |
| 2026-04-20 18:06 | 60.20112 | 23.72958 | 10627 ft | 302 kts | 86° |
| 2026-04-20 18:07 | 60.20147 | 23.77223 | 10340 ft | 300 kts | 86° |
| 2026-04-20 18:07 | 60.20182 | 23.81369 | 10082 ft | 302 kts | 86° |
| 2026-04-20 18:07 | 60.20216 | 23.85539 | 9843 ft | 292 kts | 86° |
| 2026-04-20 18:07 | 60.20245 | 23.89548 | 9705 ft | 281 kts | 86° |
| 2026-04-20 18:08 | 60.20270 | 23.93388 | 9561 ft | 270 kts | 86° |
| 2026-04-20 18:08 | 60.20295 | 23.97126 | 9293 ft | 265 kts | 86° |
| 2026-04-20 18:08 | 60.20320 | 24.00812 | 8971 ft | 262 kts | 86° |
| 2026-04-20 18:08 | 60.20341 | 24.04411 | 8830 ft | 253 kts | 86° |
| 2026-04-20 18:09 | 60.20358 | 24.07888 | 8725 ft | 244 kts | 86° |
| 2026-04-20 18:09 | 60.20375 | 24.11266 | 8496 ft | 240 kts | 86° |
| 2026-04-20 18:09 | 60.20395 | 24.14608 | 8214 ft | 238 kts | 86° |
| 2026-04-20 18:09 | 60.20414 | 24.17933 | 7917 ft | 238 kts | 86° |
| 2026-04-20 18:10 | 60.20433 | 24.21257 | 7608 ft | 237 kts | 86° |
| 2026-04-20 18:10 | 60.20450 | 24.24557 | 7306 ft | 236 kts | 86° |
| 2026-04-20 18:10 | 60.20465 | 24.27858 | 7007 ft | 236 kts | 86° |
| 2026-04-20 18:10 | 60.20480 | 24.31144 | 6716 ft | 235 kts | 86° |
| 2026-04-20 18:11 | 60.20492 | 24.34377 | 6564 ft | 227 kts | 86° |
| 2026-04-20 18:11 | 60.20503 | 24.37525 | 6314 ft | 224 kts | 86° |
| 2026-04-20 18:11 | 60.20516 | 24.40644 | 6008 ft | 222 kts | 86° |
| 2026-04-20 18:11 | 60.20529 | 24.43804 | 5443 ft | 232 kts | 86° |
| 2026-04-20 18:12 | 60.20544 | 24.47143 | 4782 ft | 246 kts | 86° |
| 2026-04-20 18:12 | 60.20554 | 24.50661 | 4152 ft | 247 kts | 86° |
| 2026-04-20 18:12 | 60.20558 | 24.54020 | 3716 ft | 239 kts | 86° |
| 2026-04-20 18:12 | 60.20557 | 24.57296 | 3330 ft | 229 kts | 86° |
| 2026-04-20 18:13 | 60.20558 | 24.60447 | 2977 ft | 224 kts | 86° |
| 2026-04-20 18:13 | 60.20565 | 24.63584 | 2613 ft | 225 kts | 85° |
| 2026-04-20 18:13 | 60.20813 | 24.66627 | 2341 ft | 216 kts | 65° |
| 2026-04-20 18:13 | 60.21555 | 24.69105 | 2299 ft | 199 kts | 47° |
| 2026-04-20 18:14 | 60.22452 | 24.71063 | 2305 ft | 183 kts | 46° |
| 2026-04-20 18:14 | 60.23283 | 24.72873 | 2305 ft | 172 kts | 45° |
| 2026-04-20 18:14 | 60.24086 | 24.74620 | 2215 ft | 169 kts | 45° |
| 2026-04-20 18:14 | 60.24874 | 24.76337 | 2072 ft | 164 kts | 46° |
| 2026-04-20 18:15 | 60.25638 | 24.78005 | 1845 ft | 160 kts | 46° |
| 2026-04-20 18:15 | 60.26355 | 24.79573 | 1643 ft | 142 kts | 45° |
| 2026-04-20 18:15 | 60.26994 | 24.80970 | 1448 ft | 131 kts | 45° |
| 2026-04-20 18:15 | 60.27602 | 24.82298 | 1260 ft | 128 kts | 46° |
| 2026-04-20 18:16 | 60.28200 | 24.83612 | 1087 ft | 127 kts | 46° |
| 2026-04-20 18:16 | 60.28798 | 24.84916 | 924 ft | 127 kts | 45° |
| 2026-04-20 18:16 | 60.29400 | 24.86229 | 737 ft | 129 kts | 46° |
| 2026-04-20 18:16 | 60.30012 | 24.87566 | 564 ft | 130 kts | 46° |
| 2026-04-20 18:17 | 60.30623 | 24.88913 | 394 ft | 130 kts | 45° |
| 2026-04-20 18:17 | 60.31233 | 24.90252 | 206 ft | 129 kts | 46° |
| 2026-04-20 18:17 | 60.31800 | 24.91501 | 149 ft | 103 kts | 49° |
| 2026-04-20 18:17 | 60.32171 | 24.92314 | 164 ft | 55 kts | 47° |
| 2026-04-20 18:18 | 60.32398 | 24.92816 | 172 ft | 43 kts | 47° |
| 2026-04-20 18:18 | 60.32597 | 24.93254 | 179 ft | 42 kts | 47° |
| 2026-04-20 18:18 | 60.32798 | 24.93695 | 181 ft | 49 kts | 47° |
| 2026-04-20 18:18 | 60.33003 | 24.94142 | 197 ft | 26 kts | 47° |
| 2026-04-20 18:19 | 60.33049 | 24.94384 | 189 ft | 18 kts | 94° |
| 2026-04-20 18:19 | 60.33045 | 24.94603 | 184 ft | 5 kts | 92° |
| 2026-04-20 18:19 | 60.33045 | 24.94604 | 184 ft | 0 kts | 92° |
| 2026-04-20 18:20 | 60.33045 | 24.94618 | 183 ft | 3 kts | 92° |
| 2026-04-20 18:20 | 60.33043 | 24.94703 | 181 ft | 8 kts | 94° |
| 2026-04-20 18:20 | 60.33042 | 24.94732 | 180 ft | 4 kts | 94° |
| 2026-04-20 18:20 | 60.33052 | 24.94824 | 179 ft | 10 kts | 60° |
| 2026-04-20 18:21 | 60.33101 | 24.94955 | 178 ft | 14 kts | 64° |
| 2026-04-20 18:21 | 60.33118 | 24.95172 | 178 ft | 18 kts | 70° |
| 2026-04-20 18:21 | 60.33196 | 24.95373 | 181 ft | 17 kts | 56° |
| 2026-04-20 18:21 | 60.33169 | 24.95589 | 181 ft | 19 kts | 139° |
| 2026-04-20 18:22 | 60.33062 | 24.95781 | 181 ft | 22 kts | 146° |
| 2026-04-20 18:22 | 60.32915 | 24.95953 | 176 ft | 27 kts | 150° |
| 2026-04-20 18:22 | 60.32758 | 24.96136 | 173 ft | 23 kts | 149° |
| 2026-04-20 18:22 | 60.32646 | 24.96267 | 172 ft | 12 kts | 150° |
| 2026-04-20 18:23 | 60.32579 | 24.96346 | 173 ft | 10 kts | 150° |
| 2026-04-20 18:23 | 60.32511 | 24.96420 | 174 ft | 12 kts | 151° |
| 2026-04-20 18:23 | 60.32428 | 24.96516 | 175 ft | 14 kts | 151° |
| 2026-04-20 18:23 | 60.32332 | 24.96633 | 170 ft | 20 kts | 149° |
| 2026-04-20 18:24 | 60.32205 | 24.96782 | 166 ft | 21 kts | 150° |
| 2026-04-20 18:24 | 60.32118 | 24.96880 | 166 ft | 14 kts | 151° |
| 2026-04-20 18:24 | 60.32025 | 24.96986 | 166 ft | 17 kts | 152° |
| 2026-04-20 18:24 | 60.31921 | 24.97095 | 166 ft | 12 kts | 153° |
| 2026-04-20 18:25 | 60.31876 | 24.97141 | 166 ft | 7 kts | 154° |
| 2026-04-20 18:25 | 60.31843 | 24.97120 | 166 ft | 6 kts | 240° |
| 2026-04-20 18:25 | 60.31830 | 24.97064 | 167 ft | 2 kts | 243° |
| 2026-04-20 18:25 | 60.31824 | 24.97042 | 167 ft | 1 kts | 243° |
| 2026-04-20 18:26 | 60.31824 | 24.97039 | 167 ft | 0 kts | 243° |